Pagrindinis puslapis
METAR-TAF:

METAR-TAF

Oro uostai :

Hōfu, Japonija

platuma: 34-02N, ilguma: 131-33E, Aukštis: 2 m

Dabartinis oras

Ataskaita buvo paskelbta 3 valandos ir 2 minutes, ne 09:47 UTC
Vėjas 4 kt iš Šiaurės
Temperatūra 7°C
Drėgmė 70%
Slėgis 1025 hPa
Matomumas 10 km arba daugiau
Mažai debesys ne aukštis 5000 ft
Išsisklaidę debesys ne aukštis 18000 ft
Su prošvaistėmis

METAR: RJOF 130947Z 01004KT 9999 FEW050 SCT180 BKN/// 07/02 Q1025 RMK 1SC050 3AC180 A3030

Laikas: 21:49 (12:49 UTC)


TAF: trūkstamas

Orai ataskaitas ir orų prognozės (METAR, TAF).

turimą stotys yra geltonos ir raudonos taškus žemėlapyje.

Perkelti pele per norėdami pamatyti stoties vardą.

Tada spustelėkite, norėdami matyti oro stebėjimo ir prognozės.

Norėdami pakeisti žemėlapį: spustelėkite ant žalios mygtukų su juodo kryžiaus žemyn,; žalią mygtuką su brūkšneliu, jei norite nutolinti; arba žalių rodyklių gretimoms žemėlapius.


METAR-TAF: